sensor_id;sensor_type;location;lat;lon;timestamp;temperature;humidity
3994;DHT22;2011;48.238;13.948;2023-04-03T00:00:52;5.30;99.90
3994;DHT22;2011;48.238;13.948;2023-04-03T00:03:19;5.20;99.90
3994;DHT22;2011;48.238;13.948;2023-04-03T00:05:47;5.20;99.90
3994;DHT22;2011;48.238;13.948;2023-04-03T00:08:14;5.20;99.90
3994;DHT22;2011;48.238;13.948;2023-04-03T00:10:41;5.20;99.90
3994;DHT22;2011;48.238;13.948;2023-04-03T00:13:09;5.20;99.90
3994;DHT22;2011;48.238;13.948;2023-04-03T00:15:36;5.30;99.90
3994;DHT22;2011;48.238;13.948;2023-04-03T00:18:04;5.20;99.90
3994;DHT22;2011;48.238;13.948;2023-04-03T00:20:31;5.20;99.90
3994;DHT22;2011;48.238;13.948;2023-04-03T00:23:00;5.10;99.90
3994;DHT22;2011;48.238;13.948;2023-04-03T00:25:28;5.20;99.90
3994;DHT22;2011;48.238;13.948;2023-04-03T00:27:55;5.20;99.90
3994;DHT22;2011;48.238;13.948;2023-04-03T00:30:22;5.20;99.90
3994;DHT22;2011;48.238;13.948;2023-04-03T00:32:50;5.20;99.90
3994;DHT22;2011;48.238;13.948;2023-04-03T00:35:17;5.10;99.90
3994;DHT22;2011;48.238;13.948;2023-04-03T00:37:45;5.10;99.90
3994;DHT22;2011;48.238;13.948;2023-04-03T00:40:15;5.20;99.90
3994;DHT22;2011;48.238;13.948;2023-04-03T00:42:43;5.20;99.90
3994;DHT22;2011;48.238;13.948;2023-04-03T00:45:25;5.20;99.90
3994;DHT22;2011;48.238;13.948;2023-04-03T00:47:52;5.20;99.90
3994;DHT22;2011;48.238;13.948;2023-04-03T00:50:19;5.30;99.90
3994;DHT22;2011;48.238;13.948;2023-04-03T00:52:46;5.20;99.90
3994;DHT22;2011;48.238;13.948;2023-04-03T00:55:16;5.20;99.90
3994;DHT22;2011;48.238;13.948;2023-04-03T00:57:44;5.20;99.90
3994;DHT22;2011;48.238;13.948;2023-04-03T01:00:14;5.20;99.90
3994;DHT22;2011;48.238;13.948;2023-04-03T01:02:41;5.20;99.90
3994;DHT22;2011;48.238;13.948;2023-04-03T01:05:08;5.30;99.90
3994;DHT22;2011;48.238;13.948;2023-04-03T01:07:36;5.20;99.90
3994;DHT22;2011;48.238;13.948;2023-04-03T01:10:06;5.20;99.90
3994;DHT22;2011;48.238;13.948;2023-04-03T01:12:37;5.20;99.90
3994;DHT22;2011;48.238;13.948;2023-04-03T01:15:06;5.20;99.90
3994;DHT22;2011;48.238;13.948;2023-04-03T01:17:36;5.20;99.90
3994;DHT22;2011;48.238;13.948;2023-04-03T01:20:37;5.20;99.90
3994;DHT22;2011;48.238;13.948;2023-04-03T01:23:22;5.20;99.90
3994;DHT22;2011;48.238;13.948;2023-04-03T01:25:53;5.20;99.90
3994;DHT22;2011;48.238;13.948;2023-04-03T01:28:24;5.20;99.90
3994;DHT22;2011;48.238;13.948;2023-04-03T01:30:55;5.20;99.90
3994;DHT22;2011;48.238;13.948;2023-04-03T01:33:25;5.20;99.90
3994;DHT22;2011;48.238;13.948;2023-04-03T01:35:52;5.20;99.90
3994;DHT22;2011;48.238;13.948;2023-04-03T01:38:19;5.10;99.90
3994;DHT22;2011;48.238;13.948;2023-04-03T01:40:46;5.00;99.90
3994;DHT22;2011;48.238;13.948;2023-04-03T01:43:13;5.00;99.90
3994;DHT22;2011;48.238;13.948;2023-04-03T01:45:40;4.90;99.90
3994;DHT22;2011;48.238;13.948;2023-04-03T01:48:07;4.90;99.90
3994;DHT22;2011;48.238;13.948;2023-04-03T01:50:35;4.90;99.90
3994;DHT22;2011;48.238;13.948;2023-04-03T01:53:02;5.00;99.90
3994;DHT22;2011;48.238;13.948;2023-04-03T01:55:29;5.00;99.90
3994;DHT22;2011;48.238;13.948;2023-04-03T01:57:56;5.00;99.90
3994;DHT22;2011;48.238;13.948;2023-04-03T02:00:23;5.10;99.90
3994;DHT22;2011;48.238;13.948;2023-04-03T02:02:50;5.10;99.90
3994;DHT22;2011;48.238;13.948;2023-04-03T02:05:17;5.10;99.90
3994;DHT22;2011;48.238;13.948;2023-04-03T02:07:45;5.00;99.90
3994;DHT22;2011;48.238;13.948;2023-04-03T02:10:12;5.00;99.90
3994;DHT22;2011;48.238;13.948;2023-04-03T02:12:39;4.90;99.90
3994;DHT22;2011;48.238;13.948;2023-04-03T02:15:07;4.90;99.90
3994;DHT22;2011;48.238;13.948;2023-04-03T02:17:35;4.90;99.90
3994;DHT22;2011;48.238;13.948;2023-04-03T02:20:03;4.80;99.90
3994;DHT22;2011;48.238;13.948;2023-04-03T02:22:30;4.80;99.90
3994;DHT22;2011;48.238;13.948;2023-04-03T02:24:58;4.80;99.90
3994;DHT22;2011;48.238;13.948;2023-04-03T02:27:26;4.90;99.90
3994;DHT22;2011;48.238;13.948;2023-04-03T02:29:53;5.00;99.90
3994;DHT22;2011;48.238;13.948;2023-04-03T02:32:20;4.90;99.90
3994;DHT22;2011;48.238;13.948;2023-04-03T02:34:46;4.90;99.90
3994;DHT22;2011;48.238;13.948;2023-04-03T02:37:13;4.90;99.90
3994;DHT22;2011;48.238;13.948;2023-04-03T02:39:40;4.90;99.90
3994;DHT22;2011;48.238;13.948;2023-04-03T02:42:09;4.80;99.90
3994;DHT22;2011;48.238;13.948;2023-04-03T02:44:36;4.80;99.90
3994;DHT22;2011;48.238;13.948;2023-04-03T02:47:02;4.80;99.90
3994;DHT22;2011;48.238;13.948;2023-04-03T02:49:29;4.80;99.90
3994;DHT22;2011;48.238;13.948;2023-04-03T02:51:56;4.70;99.90
3994;DHT22;2011;48.238;13.948;2023-04-03T02:54:23;4.70;99.90
3994;DHT22;2011;48.238;13.948;2023-04-03T02:56:54;4.60;99.90
3994;DHT22;2011;48.238;13.948;2023-04-03T02:59:22;4.50;99.90
3994;DHT22;2011;48.238;13.948;2023-04-03T03:01:49;4.50;99.90
3994;DHT22;2011;48.238;13.948;2023-04-03T03:04:16;4.50;99.90
3994;DHT22;2011;48.238;13.948;2023-04-03T03:06:43;4.40;99.90
3994;DHT22;2011;48.238;13.948;2023-04-03T03:09:09;4.40;99.90
3994;DHT22;2011;48.238;13.948;2023-04-03T03:11:36;4.40;99.90
3994;DHT22;2011;48.238;13.948;2023-04-03T03:14:03;4.50;99.90
3994;DHT22;2011;48.238;13.948;2023-04-03T03:16:32;4.50;99.90
3994;DHT22;2011;48.238;13.948;2023-04-03T03:18:59;4.50;99.90
3994;DHT22;2011;48.238;13.948;2023-04-03T03:21:26;4.40;99.90
3994;DHT22;2011;48.238;13.948;2023-04-03T03:23:52;4.40;99.90
3994;DHT22;2011;48.238;13.948;2023-04-03T03:26:19;4.40;99.90
3994;DHT22;2011;48.238;13.948;2023-04-03T03:28:46;4.50;99.90
3994;DHT22;2011;48.238;13.948;2023-04-03T03:31:13;4.50;99.90
3994;DHT22;2011;48.238;13.948;2023-04-03T03:33:42;4.50;99.90
3994;DHT22;2011;48.238;13.948;2023-04-03T03:36:09;4.50;99.90
3994;DHT22;2011;48.238;13.948;2023-04-03T03:38:36;4.50;99.90
3994;DHT22;2011;48.238;13.948;2023-04-03T03:41:03;4.50;99.90
3994;DHT22;2011;48.238;13.948;2023-04-03T03:43:30;4.50;99.90
3994;DHT22;2011;48.238;13.948;2023-04-03T03:45:57;4.40;99.90
3994;DHT22;2011;48.238;13.948;2023-04-03T03:48:24;4.30;99.90
3994;DHT22;2011;48.238;13.948;2023-04-03T03:50:52;4.30;99.90
3994;DHT22;2011;48.238;13.948;2023-04-03T03:53:19;4.30;99.90
3994;DHT22;2011;48.238;13.948;2023-04-03T03:55:46;4.30;99.90
3994;DHT22;2011;48.238;13.948;2023-04-03T03:58:13;4.30;99.90
3994;DHT22;2011;48.238;13.948;2023-04-03T04:00:40;4.40;99.90
3994;DHT22;2011;48.238;13.948;2023-04-03T04:03:07;4.30;99.90
3994;DHT22;2011;48.238;13.948;2023-04-03T04:05:33;4.40;99.90
3994;DHT22;2011;48.238;13.948;2023-04-03T04:08:02;4.30;99.90
3994;DHT22;2011;48.238;13.948;2023-04-03T04:10:29;4.30;99.90
3994;DHT22;2011;48.238;13.948;2023-04-03T04:12:55;4.30;99.90
3994;DHT22;2011;48.238;13.948;2023-04-03T04:15:22;4.30;99.90
3994;DHT22;2011;48.238;13.948;2023-04-03T04:17:51;4.40;99.90
3994;DHT22;2011;48.238;13.948;2023-04-03T04:20:18;4.40;99.90
3994;DHT22;2011;48.238;13.948;2023-04-03T04:22:45;4.30;99.90
3994;DHT22;2011;48.238;13.948;2023-04-03T04:25:14;4.30;99.90
3994;DHT22;2011;48.238;13.948;2023-04-03T04:27:40;4.30;99.90
3994;DHT22;2011;48.238;13.948;2023-04-03T04:30:09;4.30;99.90
3994;DHT22;2011;48.238;13.948;2023-04-03T04:32:36;4.40;99.90
3994;DHT22;2011;48.238;13.948;2023-04-03T04:35:04;4.40;99.90
3994;DHT22;2011;48.238;13.948;2023-04-03T04:37:31;4.30;99.90
3994;DHT22;2011;48.238;13.948;2023-04-03T04:39:58;4.30;99.90
3994;DHT22;2011;48.238;13.948;2023-04-03T04:42:26;4.40;99.90
3994;DHT22;2011;48.238;13.948;2023-04-03T04:44:53;4.40;99.90
3994;DHT22;2011;48.238;13.948;2023-04-03T04:47:20;4.40;99.90
3994;DHT22;2011;48.238;13.948;2023-04-03T04:49:47;4.50;99.90
3994;DHT22;2011;48.238;13.948;2023-04-03T04:52:14;4.50;99.90
3994;DHT22;2011;48.238;13.948;2023-04-03T04:54:41;4.50;99.90
3994;DHT22;2011;48.238;13.948;2023-04-03T04:57:08;4.50;99.90
3994;DHT22;2011;48.238;13.948;2023-04-03T04:59:37;4.50;99.90
3994;DHT22;2011;48.238;13.948;2023-04-03T05:02:04;4.50;99.90
3994;DHT22;2011;48.238;13.948;2023-04-03T05:04:31;4.50;99.90
3994;DHT22;2011;48.238;13.948;2023-04-03T05:06:58;4.40;99.90
3994;DHT22;2011;48.238;13.948;2023-04-03T05:09:26;4.40;99.90
3994;DHT22;2011;48.238;13.948;2023-04-03T05:11:53;4.40;99.90
3994;DHT22;2011;48.238;13.948;2023-04-03T05:14:20;4.50;99.90
3994;DHT22;2011;48.238;13.948;2023-04-03T05:16:48;4.50;99.90
3994;DHT22;2011;48.238;13.948;2023-04-03T05:19:18;4.50;99.90
3994;DHT22;2011;48.238;13.948;2023-04-03T05:21:45;4.50;99.90
3994;DHT22;2011;48.238;13.948;2023-04-03T05:24:12;4.50;99.90
3994;DHT22;2011;48.238;13.948;2023-04-03T05:26:40;4.50;99.90
3994;DHT22;2011;48.238;13.948;2023-04-03T05:29:07;4.50;99.90
3994;DHT22;2011;48.238;13.948;2023-04-03T05:31:34;4.50;99.90
3994;DHT22;2011;48.238;13.948;2023-04-03T05:34:02;4.50;99.90
3994;DHT22;2011;48.238;13.948;2023-04-03T05:36:29;4.50;99.90
3994;DHT22;2011;48.238;13.948;2023-04-03T05:38:56;4.50;99.90
3994;DHT22;2011;48.238;13.948;2023-04-03T05:41:23;4.40;99.90
3994;DHT22;2011;48.238;13.948;2023-04-03T05:43:50;4.40;99.90
3994;DHT22;2011;48.238;13.948;2023-04-03T05:46:18;4.40;99.90
3994;DHT22;2011;48.238;13.948;2023-04-03T05:48:46;4.30;99.90
3994;DHT22;2011;48.238;13.948;2023-04-03T05:51:17;4.30;99.90
3994;DHT22;2011;48.238;13.948;2023-04-03T05:53:44;4.30;99.90
3994;DHT22;2011;48.238;13.948;2023-04-03T05:56:12;4.30;99.90
3994;DHT22;2011;48.238;13.948;2023-04-03T05:58:39;4.40;99.90
3994;DHT22;2011;48.238;13.948;2023-04-03T06:01:06;4.40;99.90
3994;DHT22;2011;48.238;13.948;2023-04-03T06:03:33;4.40;99.90
3994;DHT22;2011;48.238;13.948;2023-04-03T06:06:03;4.50;99.90
3994;DHT22;2011;48.238;13.948;2023-04-03T06:08:31;4.50;99.90
3994;DHT22;2011;48.238;13.948;2023-04-03T06:10:59;4.40;99.90
3994;DHT22;2011;48.238;13.948;2023-04-03T06:13:27;4.40;99.90
3994;DHT22;2011;48.238;13.948;2023-04-03T06:15:54;4.30;99.90
3994;DHT22;2011;48.238;13.948;2023-04-03T06:18:22;4.30;99.90
3994;DHT22;2011;48.238;13.948;2023-04-03T06:20:48;4.30;99.90
3994;DHT22;2011;48.238;13.948;2023-04-03T06:23:15;4.30;99.90
3994;DHT22;2011;48.238;13.948;2023-04-03T06:25:44;4.30;99.90
3994;DHT22;2011;48.238;13.948;2023-04-03T06:28:11;4.30;99.90
3994;DHT22;2011;48.238;13.948;2023-04-03T06:30:38;4.30;99.90
3994;DHT22;2011;48.238;13.948;2023-04-03T06:33:05;4.30;99.90
3994;DHT22;2011;48.238;13.948;2023-04-03T06:35:32;4.30;99.90
3994;DHT22;2011;48.238;13.948;2023-04-03T06:38:00;4.40;99.90
3994;DHT22;2011;48.238;13.948;2023-04-03T06:40:27;4.30;99.90
3994;DHT22;2011;48.238;13.948;2023-04-03T06:42:55;4.30;99.90
3994;DHT22;2011;48.238;13.948;2023-04-03T06:45:22;4.40;99.90
3994;DHT22;2011;48.238;13.948;2023-04-03T06:47:51;4.30;99.90
3994;DHT22;2011;48.238;13.948;2023-04-03T06:50:18;4.30;99.90
3994;DHT22;2011;48.238;13.948;2023-04-03T06:52:44;4.40;99.90
3994;DHT22;2011;48.238;13.948;2023-04-03T06:55:12;4.40;99.90
3994;DHT22;2011;48.238;13.948;2023-04-03T06:57:38;4.60;99.90
3994;DHT22;2011;48.238;13.948;2023-04-03T07:00:08;4.50;99.90
3994;DHT22;2011;48.238;13.948;2023-04-03T07:02:36;4.50;99.90
3994;DHT22;2011;48.238;13.948;2023-04-03T07:05:03;4.60;99.90
3994;DHT22;2011;48.238;13.948;2023-04-03T07:07:31;4.70;99.90
3994;DHT22;2011;48.238;13.948;2023-04-03T07:09:59;4.80;99.90
3994;DHT22;2011;48.238;13.948;2023-04-03T07:12:26;4.80;99.90
3994;DHT22;2011;48.238;13.948;2023-04-03T07:14:53;4.90;99.90
3994;DHT22;2011;48.238;13.948;2023-04-03T07:17:21;4.90;99.90
3994;DHT22;2011;48.238;13.948;2023-04-03T07:19:48;4.90;99.90
3994;DHT22;2011;48.238;13.948;2023-04-03T07:22:15;5.00;99.90
3994;DHT22;2011;48.238;13.948;2023-04-03T07:24:42;5.10;99.90
3994;DHT22;2011;48.238;13.948;2023-04-03T07:27:09;5.20;99.90
3994;DHT22;2011;48.238;13.948;2023-04-03T07:29:38;5.30;99.90
3994;DHT22;2011;48.238;13.948;2023-04-03T07:32:06;5.30;99.90
3994;DHT22;2011;48.238;13.948;2023-04-03T07:34:34;5.40;99.90
3994;DHT22;2011;48.238;13.948;2023-04-03T07:37:03;5.40;99.90
3994;DHT22;2011;48.238;13.948;2023-04-03T07:39:30;5.50;99.90
3994;DHT22;2011;48.238;13.948;2023-04-03T07:41:57;5.60;99.90
3994;DHT22;2011;48.238;13.948;2023-04-03T07:44:24;5.60;99.90
3994;DHT22;2011;48.238;13.948;2023-04-03T07:46:54;5.70;99.90
3994;DHT22;2011;48.238;13.948;2023-04-03T07:49:22;5.70;99.90
3994;DHT22;2011;48.238;13.948;2023-04-03T07:51:51;5.60;99.90
3994;DHT22;2011;48.238;13.948;2023-04-03T07:54:18;5.60;99.90
3994;DHT22;2011;48.238;13.948;2023-04-03T07:56:45;5.30;99.90
3994;DHT22;2011;48.238;13.948;2023-04-03T07:59:12;5.20;99.90
3994;DHT22;2011;48.238;13.948;2023-04-03T08:01:39;5.00;99.90
3994;DHT22;2011;48.238;13.948;2023-04-03T08:04:06;4.80;99.90
3994;DHT22;2011;48.238;13.948;2023-04-03T08:06:33;4.40;99.90
3994;DHT22;2011;48.238;13.948;2023-04-03T08:09:04;4.20;99.90
3994;DHT22;2011;48.238;13.948;2023-04-03T08:11:31;4.00;99.90
3994;DHT22;2011;48.238;13.948;2023-04-03T08:13:58;4.00;99.90
3994;DHT22;2011;48.238;13.948;2023-04-03T08:16:25;4.00;99.90
3994;DHT22;2011;48.238;13.948;2023-04-03T08:18:54;4.00;99.90
3994;DHT22;2011;48.238;13.948;2023-04-03T08:21:21;4.00;99.90
3994;DHT22;2011;48.238;13.948;2023-04-03T08:23:49;4.00;99.90
3994;DHT22;2011;48.238;13.948;2023-04-03T08:26:20;4.10;99.90
3994;DHT22;2011;48.238;13.948;2023-04-03T08:28:47;4.20;99.90
3994;DHT22;2011;48.238;13.948;2023-04-03T08:31:17;4.30;99.90
3994;DHT22;2011;48.238;13.948;2023-04-03T08:33:44;4.40;99.90
3994;DHT22;2011;48.238;13.948;2023-04-03T08:36:18;4.50;99.90
3994;DHT22;2011;48.238;13.948;2023-04-03T08:38:46;4.60;99.90
3994;DHT22;2011;48.238;13.948;2023-04-03T08:41:15;4.70;99.90
3994;DHT22;2011;48.238;13.948;2023-04-03T08:43:56;4.80;99.90
3994;DHT22;2011;48.238;13.948;2023-04-03T08:46:30;4.80;99.90
3994;DHT22;2011;48.238;13.948;2023-04-03T08:48:59;4.80;99.90
3994;DHT22;2011;48.238;13.948;2023-04-03T08:51:26;4.80;99.90
3994;DHT22;2011;48.238;13.948;2023-04-03T08:53:57;4.70;99.90
3994;DHT22;2011;48.238;13.948;2023-04-03T08:56:25;4.80;99.90
3994;DHT22;2011;48.238;13.948;2023-04-03T08:58:56;4.80;99.90
3994;DHT22;2011;48.238;13.948;2023-04-03T09:01:27;4.90;99.90
3994;DHT22;2011;48.238;13.948;2023-04-03T09:03:56;5.10;99.90
3994;DHT22;2011;48.238;13.948;2023-04-03T09:06:26;5.10;99.90
3994;DHT22;2011;48.238;13.948;2023-04-03T09:09:02;5.30;99.90
3994;DHT22;2011;48.238;13.948;2023-04-03T09:11:41;5.40;99.90
3994;DHT22;2011;48.238;13.948;2023-04-03T09:14:16;5.60;99.90
3994;DHT22;2011;48.238;13.948;2023-04-03T09:16:51;5.70;99.90
3994;DHT22;2011;48.238;13.948;2023-04-03T09:19:25;5.80;99.90
3994;DHT22;2011;48.238;13.948;2023-04-03T09:21:56;5.90;99.90
3994;DHT22;2011;48.238;13.948;2023-04-03T09:24:23;6.00;99.90
3994;DHT22;2011;48.238;13.948;2023-04-03T09:26:53;6.00;99.90
3994;DHT22;2011;48.238;13.948;2023-04-03T09:29:23;6.10;99.90
3994;DHT22;2011;48.238;13.948;2023-04-03T09:31:56;6.20;99.90
3994;DHT22;2011;48.238;13.948;2023-04-03T09:34:25;6.30;99.90
3994;DHT22;2011;48.238;13.948;2023-04-03T09:36:54;6.20;99.90
3994;DHT22;2011;48.238;13.948;2023-04-03T09:39:24;6.10;99.90
3994;DHT22;2011;48.238;13.948;2023-04-03T09:41:57;6.20;99.90
3994;DHT22;2011;48.238;13.948;2023-04-03T09:44:27;6.30;99.90
3994;DHT22;2011;48.238;13.948;2023-04-03T09:46:54;6.30;98.40
3994;DHT22;2011;48.238;13.948;2023-04-03T09:49:21;6.30;98.30
3994;DHT22;2011;48.238;13.948;2023-04-03T09:51:48;6.40;98.00
3994;DHT22;2011;48.238;13.948;2023-04-03T09:54:34;6.50;97.10
3994;DHT22;2011;48.238;13.948;2023-04-03T09:57:10;6.50;96.20
3994;DHT22;2011;48.238;13.948;2023-04-03T09:59:46;6.60;96.60
3994;DHT22;2011;48.238;13.948;2023-04-03T10:02:30;6.70;96.10
3994;DHT22;2011;48.238;13.948;2023-04-03T10:04:58;6.80;95.80
3994;DHT22;2011;48.238;13.948;2023-04-03T10:07:31;6.90;96.10
3994;DHT22;2011;48.238;13.948;2023-04-03T10:09:59;7.00;94.80
3994;DHT22;2011;48.238;13.948;2023-04-03T10:12:27;7.00;95.00
3994;DHT22;2011;48.238;13.948;2023-04-03T10:14:58;7.20;94.60
3994;DHT22;2011;48.238;13.948;2023-04-03T10:17:37;7.30;94.40
3994;DHT22;2011;48.238;13.948;2023-04-03T10:20:19;7.30;93.90
3994;DHT22;2011;48.238;13.948;2023-04-03T10:22:56;7.40;93.90
3994;DHT22;2011;48.238;13.948;2023-04-03T10:25:31;7.40;92.90
3994;DHT22;2011;48.238;13.948;2023-04-03T10:28:01;7.40;92.40
3994;DHT22;2011;48.238;13.948;2023-04-03T10:30:42;7.40;91.60
3994;DHT22;2011;48.238;13.948;2023-04-03T10:33:28;7.30;90.20
3994;DHT22;2011;48.238;13.948;2023-04-03T10:36:06;7.30;90.00
3994;DHT22;2011;48.238;13.948;2023-04-03T10:38:43;7.50;90.40
3994;DHT22;2011;48.238;13.948;2023-04-03T10:41:19;7.60;89.80
3994;DHT22;2011;48.238;13.948;2023-04-03T10:43:53;7.60;90.30
3994;DHT22;2011;48.238;13.948;2023-04-03T10:46:27;7.50;89.20
3994;DHT22;2011;48.238;13.948;2023-04-03T10:49:13;7.50;88.50
3994;DHT22;2011;48.238;13.948;2023-04-03T10:51:45;7.50;89.40
3994;DHT22;2011;48.238;13.948;2023-04-03T10:54:20;7.50;90.30
3994;DHT22;2011;48.238;13.948;2023-04-03T10:56:52;7.50;90.10
3994;DHT22;2011;48.238;13.948;2023-04-03T10:59:25;7.40;89.90
3994;DHT22;2011;48.238;13.948;2023-04-03T11:01:56;7.50;90.50
3994;DHT22;2011;48.238;13.948;2023-04-03T11:04:27;7.50;89.70
3994;DHT22;2011;48.238;13.948;2023-04-03T11:07:00;7.60;89.80
3994;DHT22;2011;48.238;13.948;2023-04-03T11:09:30;7.80;89.30
3994;DHT22;2011;48.238;13.948;2023-04-03T11:12:15;8.00;88.20
3994;DHT22;2011;48.238;13.948;2023-04-03T11:14:43;8.10;85.70
3994;DHT22;2011;48.238;13.948;2023-04-03T11:17:22;7.80;80.50
3994;DHT22;2011;48.238;13.948;2023-04-03T11:19:57;7.70;81.40
3994;DHT22;2011;48.238;13.948;2023-04-03T11:22:29;7.80;83.80
3994;DHT22;2011;48.238;13.948;2023-04-03T11:25:02;7.90;84.50
3994;DHT22;2011;48.238;13.948;2023-04-03T11:27:35;7.70;82.20
3994;DHT22;2011;48.238;13.948;2023-04-03T11:30:07;7.30;82.00
3994;DHT22;2011;48.238;13.948;2023-04-03T11:33:05;7.10;82.80
3994;DHT22;2011;48.238;13.948;2023-04-03T11:35:35;7.00;83.20
3994;DHT22;2011;48.238;13.948;2023-04-03T11:38:04;7.10;85.00
3994;DHT22;2011;48.238;13.948;2023-04-03T11:40:33;7.10;84.30
3994;DHT22;2011;48.238;13.948;2023-04-03T11:43:07;7.10;85.60
3994;DHT22;2011;48.238;13.948;2023-04-03T11:45:53;7.20;85.50
3994;DHT22;2011;48.238;13.948;2023-04-03T11:48:44;7.30;83.90
3994;DHT22;2011;48.238;13.948;2023-04-03T11:51:39;7.30;84.40
3994;DHT22;2011;48.238;13.948;2023-04-03T11:54:36;7.30;83.70
3994;DHT22;2011;48.238;13.948;2023-04-03T12:12:34;6.80;85.00
3994;DHT22;2011;48.238;13.948;2023-04-03T12:18:41;7.00;84.30
3994;DHT22;2011;48.238;13.948;2023-04-03T12:21:09;7.00;83.80
3994;DHT22;2011;48.238;13.948;2023-04-03T12:23:37;7.00;84.10
3994;DHT22;2011;48.238;13.948;2023-04-03T12:26:24;7.10;84.60
3994;DHT22;2011;48.238;13.948;2023-04-03T12:28:54;7.10;83.80
3994;DHT22;2011;48.238;13.948;2023-04-03T12:31:25;7.20;83.30
3994;DHT22;2011;48.238;13.948;2023-04-03T12:34:14;7.20;82.90
3994;DHT22;2011;48.238;13.948;2023-04-03T12:36:51;7.10;82.50
3994;DHT22;2011;48.238;13.948;2023-04-03T12:39:45;6.90;80.70
3994;DHT22;2011;48.238;13.948;2023-04-03T12:42:23;6.90;81.80
3994;DHT22;2011;48.238;13.948;2023-04-03T12:45:01;6.90;80.80
3994;DHT22;2011;48.238;13.948;2023-04-03T12:47:31;7.00;81.30
3994;DHT22;2011;48.238;13.948;2023-04-03T12:50:02;6.90;79.10
3994;DHT22;2011;48.238;13.948;2023-04-03T12:52:36;6.90;81.50
3994;DHT22;2011;48.238;13.948;2023-04-03T12:55:14;7.00;81.50
3994;DHT22;2011;48.238;13.948;2023-04-03T12:57:40;7.00;80.70
3994;DHT22;2011;48.238;13.948;2023-04-03T13:00:31;7.00;79.20
3994;DHT22;2011;48.238;13.948;2023-04-03T13:03:00;7.10;78.60
3994;DHT22;2011;48.238;13.948;2023-04-03T13:05:28;7.20;81.30
3994;DHT22;2011;48.238;13.948;2023-04-03T13:07:59;7.30;81.80
3994;DHT22;2011;48.238;13.948;2023-04-03T13:10:29;7.40;79.70
3994;DHT22;2011;48.238;13.948;2023-04-03T13:12:57;7.50;80.00
3994;DHT22;2011;48.238;13.948;2023-04-03T13:15:26;7.70;80.40
3994;DHT22;2011;48.238;13.948;2023-04-03T13:17:55;7.80;79.10
3994;DHT22;2011;48.238;13.948;2023-04-03T13:20:25;8.10;80.00
3994;DHT22;2011;48.238;13.948;2023-04-03T13:22:56;7.80;77.30
3994;DHT22;2011;48.238;13.948;2023-04-03T13:25:25;7.50;76.20
3994;DHT22;2011;48.238;13.948;2023-04-03T13:27:54;7.10;76.30
3994;DHT22;2011;48.238;13.948;2023-04-03T13:30:26;7.00;78.50
3994;DHT22;2011;48.238;13.948;2023-04-03T13:32:56;7.00;77.90
3994;DHT22;2011;48.238;13.948;2023-04-03T13:35:34;7.10;79.60
3994;DHT22;2011;48.238;13.948;2023-04-03T13:38:04;7.00;78.40
3994;DHT22;2011;48.238;13.948;2023-04-03T13:40:31;7.00;78.40
3994;DHT22;2011;48.238;13.948;2023-04-03T13:43:02;6.90;76.70
3994;DHT22;2011;48.238;13.948;2023-04-03T13:45:30;6.80;77.80
3994;DHT22;2011;48.238;13.948;2023-04-03T13:48:15;6.80;77.90
3994;DHT22;2011;48.238;13.948;2023-04-03T13:50:58;7.10;79.10
3994;DHT22;2011;48.238;13.948;2023-04-03T13:53:26;7.70;79.50
3994;DHT22;2011;48.238;13.948;2023-04-03T13:55:58;8.20;78.60
3994;DHT22;2011;48.238;13.948;2023-04-03T13:58:27;8.40;76.10
3994;DHT22;2011;48.238;13.948;2023-04-03T14:00:59;8.30;74.70
3994;DHT22;2011;48.238;13.948;2023-04-03T14:03:32;8.20;75.60
3994;DHT22;2011;48.238;13.948;2023-04-03T14:06:00;8.10;73.40
3994;DHT22;2011;48.238;13.948;2023-04-03T14:08:29;7.90;73.80
3994;DHT22;2011;48.238;13.948;2023-04-03T14:10:56;7.70;72.30
3994;DHT22;2011;48.238;13.948;2023-04-03T14:13:23;7.50;70.40
3994;DHT22;2011;48.238;13.948;2023-04-03T14:15:50;7.30;70.50
3994;DHT22;2011;48.238;13.948;2023-04-03T14:18:19;7.20;71.90
3994;DHT22;2011;48.238;13.948;2023-04-03T14:20:48;7.30;73.60
3994;DHT22;2011;48.238;13.948;2023-04-03T14:23:15;7.50;73.80
3994;DHT22;2011;48.238;13.948;2023-04-03T14:25:43;7.70;72.70
3994;DHT22;2011;48.238;13.948;2023-04-03T14:28:16;7.40;70.30
3994;DHT22;2011;48.238;13.948;2023-04-03T14:30:44;7.30;68.40
3994;DHT22;2011;48.238;13.948;2023-04-03T14:33:14;7.20;70.40
3994;DHT22;2011;48.238;13.948;2023-04-03T14:35:41;7.30;72.60
3994;DHT22;2011;48.238;13.948;2023-04-03T14:38:22;7.60;70.00
3994;DHT22;2011;48.238;13.948;2023-04-03T14:40:50;8.10;72.60
3994;DHT22;2011;48.238;13.948;2023-04-03T14:43:17;8.40;71.20
3994;DHT22;2011;48.238;13.948;2023-04-03T14:45:45;8.40;68.50
3994;DHT22;2011;48.238;13.948;2023-04-03T14:48:17;8.20;70.00
3994;DHT22;2011;48.238;13.948;2023-04-03T14:50:45;7.90;68.70
3994;DHT22;2011;48.238;13.948;2023-04-03T14:53:12;7.80;69.40
3994;DHT22;2011;48.238;13.948;2023-04-03T14:55:43;7.70;69.90
3994;DHT22;2011;48.238;13.948;2023-04-03T14:58:13;7.70;68.60
3994;DHT22;2011;48.238;13.948;2023-04-03T15:00:42;7.70;69.10
3994;DHT22;2011;48.238;13.948;2023-04-03T15:03:13;7.70;69.40
3994;DHT22;2011;48.238;13.948;2023-04-03T15:05:41;7.70;69.90
3994;DHT22;2011;48.238;13.948;2023-04-03T15:08:17;7.60;69.40
3994;DHT22;2011;48.238;13.948;2023-04-03T15:10:46;7.60;70.90
3994;DHT22;2011;48.238;13.948;2023-04-03T15:13:13;7.60;70.80
3994;DHT22;2011;48.238;13.948;2023-04-03T15:15:40;7.50;71.20
3994;DHT22;2011;48.238;13.948;2023-04-03T15:18:14;7.30;71.20
3994;DHT22;2011;48.238;13.948;2023-04-03T15:20:42;7.20;71.50
3994;DHT22;2011;48.238;13.948;2023-04-03T15:23:10;7.20;71.60
3994;DHT22;2011;48.238;13.948;2023-04-03T15:25:38;7.20;71.70
3994;DHT22;2011;48.238;13.948;2023-04-03T15:28:09;7.10;70.00
3994;DHT22;2011;48.238;13.948;2023-04-03T15:30:39;7.00;70.20
3994;DHT22;2011;48.238;13.948;2023-04-03T15:33:06;7.00;69.10
3994;DHT22;2011;48.238;13.948;2023-04-03T15:35:33;6.90;69.70
3994;DHT22;2011;48.238;13.948;2023-04-03T15:38:00;6.90;69.20
3994;DHT22;2011;48.238;13.948;2023-04-03T15:40:27;7.00;70.00
3994;DHT22;2011;48.238;13.948;2023-04-03T15:42:54;7.00;70.50
3994;DHT22;2011;48.238;13.948;2023-04-03T15:45:23;7.10;70.70
3994;DHT22;2011;48.238;13.948;2023-04-03T15:47:50;7.10;70.50
3994;DHT22;2011;48.238;13.948;2023-04-03T15:50:17;7.10;71.30
3994;DHT22;2011;48.238;13.948;2023-04-03T15:52:44;7.10;71.20
3994;DHT22;2011;48.238;13.948;2023-04-03T15:55:11;7.10;70.90
3994;DHT22;2011;48.238;13.948;2023-04-03T15:57:38;6.90;71.00
3994;DHT22;2011;48.238;13.948;2023-04-03T16:00:06;6.80;72.10
3994;DHT22;2011;48.238;13.948;2023-04-03T16:02:35;6.70;71.20
3994;DHT22;2011;48.238;13.948;2023-04-03T16:05:02;6.60;71.50
3994;DHT22;2011;48.238;13.948;2023-04-03T16:07:29;6.60;72.20
3994;DHT22;2011;48.238;13.948;2023-04-03T16:09:56;6.60;73.20
3994;DHT22;2011;48.238;13.948;2023-04-03T16:12:23;6.50;73.60
3994;DHT22;2011;48.238;13.948;2023-04-03T16:14:50;6.50;73.80
3994;DHT22;2011;48.238;13.948;2023-04-03T16:17:17;6.50;74.20
3994;DHT22;2011;48.238;13.948;2023-04-03T16:19:45;6.50;74.60
3994;DHT22;2011;48.238;13.948;2023-04-03T16:22:12;6.40;75.50
3994;DHT22;2011;48.238;13.948;2023-04-03T16:24:39;6.30;75.70
3994;DHT22;2011;48.238;13.948;2023-04-03T16:27:06;6.20;75.00
3994;DHT22;2011;48.238;13.948;2023-04-03T16:29:33;6.20;75.60
3994;DHT22;2011;48.238;13.948;2023-04-03T16:32:01;6.10;75.00
3994;DHT22;2011;48.238;13.948;2023-04-03T16:34:29;6.10;74.80
3994;DHT22;2011;48.238;13.948;2023-04-03T16:36:59;6.10;75.40